sensor_id;sensor_type;location;lat;lon;timestamp;temperature;humidity
38118;DHT22;23928;47.562;7.508;2023-07-31T00:00:46;15.00;99.90
38118;DHT22;23928;47.562;7.508;2023-07-31T00:03:12;14.90;99.90
38118;DHT22;23928;47.562;7.508;2023-07-31T00:05:38;14.80;99.90
38118;DHT22;23928;47.562;7.508;2023-07-31T00:08:03;14.80;99.90
38118;DHT22;23928;47.562;7.508;2023-07-31T00:10:29;14.80;99.90
38118;DHT22;23928;47.562;7.508;2023-07-31T00:12:54;14.80;99.90
38118;DHT22;23928;47.562;7.508;2023-07-31T00:15:20;14.90;99.90
38118;DHT22;23928;47.562;7.508;2023-07-31T00:17:45;14.90;99.90
38118;DHT22;23928;47.562;7.508;2023-07-31T00:20:12;14.80;99.90
38118;DHT22;23928;47.562;7.508;2023-07-31T00:22:37;14.80;99.90
38118;DHT22;23928;47.562;7.508;2023-07-31T00:25:03;14.80;99.90
38118;DHT22;23928;47.562;7.508;2023-07-31T00:27:29;14.70;99.90
38118;DHT22;23928;47.562;7.508;2023-07-31T00:29:55;14.60;99.90
38118;DHT22;23928;47.562;7.508;2023-07-31T00:32:20;14.50;99.90
38118;DHT22;23928;47.562;7.508;2023-07-31T00:34:46;14.60;99.90
38118;DHT22;23928;47.562;7.508;2023-07-31T00:37:11;14.50;99.90
38118;DHT22;23928;47.562;7.508;2023-07-31T00:39:37;14.40;99.90
38118;DHT22;23928;47.562;7.508;2023-07-31T00:42:03;14.40;99.90
38118;DHT22;23928;47.562;7.508;2023-07-31T00:44:28;14.40;99.90
38118;DHT22;23928;47.562;7.508;2023-07-31T00:46:56;14.30;99.90
38118;DHT22;23928;47.562;7.508;2023-07-31T00:49:22;14.40;99.90
38118;DHT22;23928;47.562;7.508;2023-07-31T00:51:48;14.40;99.90
38118;DHT22;23928;47.562;7.508;2023-07-31T00:54:14;14.30;99.90
38118;DHT22;23928;47.562;7.508;2023-07-31T00:56:40;14.40;99.90
38118;DHT22;23928;47.562;7.508;2023-07-31T00:59:06;14.30;99.90
38118;DHT22;23928;47.562;7.508;2023-07-31T01:01:32;14.30;99.90
38118;DHT22;23928;47.562;7.508;2023-07-31T01:03:57;14.20;99.90
38118;DHT22;23928;47.562;7.508;2023-07-31T01:12:03;14.10;99.90
38118;DHT22;23928;47.562;7.508;2023-07-31T01:14:29;14.10;99.90
38118;DHT22;23928;47.562;7.508;2023-07-31T01:16:55;14.00;99.90
38118;DHT22;23928;47.562;7.508;2023-07-31T01:19:25;14.00;99.90
38118;DHT22;23928;47.562;7.508;2023-07-31T01:25:12;14.00;99.90
38118;DHT22;23928;47.562;7.508;2023-07-31T01:28:04;14.00;99.90
38118;DHT22;23928;47.562;7.508;2023-07-31T01:30:33;13.90;99.90
38118;DHT22;23928;47.562;7.508;2023-07-31T01:33:01;13.80;99.90
38118;DHT22;23928;47.562;7.508;2023-07-31T01:35:33;13.80;99.90
38118;DHT22;23928;47.562;7.508;2023-07-31T01:37:59;13.90;99.90
38118;DHT22;23928;47.562;7.508;2023-07-31T01:40:24;13.80;99.90
38118;DHT22;23928;47.562;7.508;2023-07-31T01:42:50;13.80;99.90
38118;DHT22;23928;47.562;7.508;2023-07-31T01:45:15;13.90;99.90
38118;DHT22;23928;47.562;7.508;2023-07-31T01:47:41;13.80;99.90
38118;DHT22;23928;47.562;7.508;2023-07-31T01:50:07;13.70;99.90
38118;DHT22;23928;47.562;7.508;2023-07-31T01:52:32;13.60;99.90
38118;DHT22;23928;47.562;7.508;2023-07-31T01:54:58;13.70;99.90
38118;DHT22;23928;47.562;7.508;2023-07-31T01:57:24;13.80;99.90
38118;DHT22;23928;47.562;7.508;2023-07-31T01:59:49;13.70;99.90
38118;DHT22;23928;47.562;7.508;2023-07-31T02:02:16;13.60;99.90
38118;DHT22;23928;47.562;7.508;2023-07-31T02:04:41;13.60;99.90
38118;DHT22;23928;47.562;7.508;2023-07-31T02:07:07;13.60;99.90
38118;DHT22;23928;47.562;7.508;2023-07-31T02:09:32;13.60;99.90
38118;DHT22;23928;47.562;7.508;2023-07-31T02:11:58;13.60;99.90
38118;DHT22;23928;47.562;7.508;2023-07-31T02:14:23;13.50;99.90
38118;DHT22;23928;47.562;7.508;2023-07-31T02:16:50;13.60;99.90
38118;DHT22;23928;47.562;7.508;2023-07-31T02:19:15;13.50;99.90
38118;DHT22;23928;47.562;7.508;2023-07-31T02:21:41;13.40;99.90
38118;DHT22;23928;47.562;7.508;2023-07-31T02:24:07;13.40;99.90
38118;DHT22;23928;47.562;7.508;2023-07-31T02:26:32;13.40;99.90
38118;DHT22;23928;47.562;7.508;2023-07-31T02:28:58;13.50;99.90
38118;DHT22;23928;47.562;7.508;2023-07-31T02:31:24;13.40;99.90
38118;DHT22;23928;47.562;7.508;2023-07-31T02:33:49;13.40;99.90
38118;DHT22;23928;47.562;7.508;2023-07-31T02:36:15;13.40;99.90
38118;DHT22;23928;47.562;7.508;2023-07-31T02:38:40;13.40;99.90
38118;DHT22;23928;47.562;7.508;2023-07-31T02:41:06;13.30;99.90
38118;DHT22;23928;47.562;7.508;2023-07-31T02:43:31;13.30;99.90
38118;DHT22;23928;47.562;7.508;2023-07-31T02:45:57;13.30;99.90
38118;DHT22;23928;47.562;7.508;2023-07-31T02:48:23;13.30;99.90
38118;DHT22;23928;47.562;7.508;2023-07-31T02:50:48;13.20;99.90
38118;DHT22;23928;47.562;7.508;2023-07-31T02:53:14;13.30;99.90
38118;DHT22;23928;47.562;7.508;2023-07-31T02:55:41;13.40;99.90
38118;DHT22;23928;47.562;7.508;2023-07-31T02:58:06;13.50;99.90
38118;DHT22;23928;47.562;7.508;2023-07-31T03:00:32;13.50;99.90
38118;DHT22;23928;47.562;7.508;2023-07-31T03:02:57;13.40;99.90
38118;DHT22;23928;47.562;7.508;2023-07-31T03:05:23;13.30;99.90
38118;DHT22;23928;47.562;7.508;2023-07-31T03:07:49;13.30;99.90
38118;DHT22;23928;47.562;7.508;2023-07-31T03:10:14;13.30;99.90
38118;DHT22;23928;47.562;7.508;2023-07-31T03:12:40;13.20;99.90
38118;DHT22;23928;47.562;7.508;2023-07-31T03:15:06;13.20;99.90
38118;DHT22;23928;47.562;7.508;2023-07-31T03:17:32;13.20;99.90
38118;DHT22;23928;47.562;7.508;2023-07-31T03:19:57;13.30;99.90
38118;DHT22;23928;47.562;7.508;2023-07-31T03:22:23;13.40;99.90
38118;DHT22;23928;47.562;7.508;2023-07-31T03:24:49;13.30;99.90
38118;DHT22;23928;47.562;7.508;2023-07-31T03:27:14;13.40;99.90
38118;DHT22;23928;47.562;7.508;2023-07-31T03:29:40;13.40;99.90
38118;DHT22;23928;47.562;7.508;2023-07-31T03:32:06;13.40;99.90
38118;DHT22;23928;47.562;7.508;2023-07-31T03:34:31;13.30;99.90
38118;DHT22;23928;47.562;7.508;2023-07-31T03:36:58;13.30;99.90
38118;DHT22;23928;47.562;7.508;2023-07-31T03:39:23;13.30;99.90
38118;DHT22;23928;47.562;7.508;2023-07-31T03:41:49;13.30;99.90
38118;DHT22;23928;47.562;7.508;2023-07-31T03:44:14;13.30;99.90
38118;DHT22;23928;47.562;7.508;2023-07-31T03:46:40;13.30;99.90
38118;DHT22;23928;47.562;7.508;2023-07-31T03:49:05;13.40;99.90
38118;DHT22;23928;47.562;7.508;2023-07-31T03:51:31;13.50;99.90
38118;DHT22;23928;47.562;7.508;2023-07-31T03:53:57;13.50;99.90
38118;DHT22;23928;47.562;7.508;2023-07-31T03:56:22;13.50;99.90
38118;DHT22;23928;47.562;7.508;2023-07-31T03:58:48;13.40;99.90
38118;DHT22;23928;47.562;7.508;2023-07-31T04:01:13;13.50;99.90
38118;DHT22;23928;47.562;7.508;2023-07-31T04:03:39;13.60;99.90
38118;DHT22;23928;47.562;7.508;2023-07-31T04:06:04;13.50;99.90
38118;DHT22;23928;47.562;7.508;2023-07-31T04:08:32;13.50;99.90
38118;DHT22;23928;47.562;7.508;2023-07-31T04:10:58;13.50;99.90
38118;DHT22;23928;47.562;7.508;2023-07-31T04:13:23;13.60;99.90
38118;DHT22;23928;47.562;7.508;2023-07-31T04:15:49;13.50;99.90
38118;DHT22;23928;47.562;7.508;2023-07-31T04:18:18;13.40;99.90
38118;DHT22;23928;47.562;7.508;2023-07-31T04:20:43;13.50;99.90
38118;DHT22;23928;47.562;7.508;2023-07-31T04:23:09;13.40;99.90
38118;DHT22;23928;47.562;7.508;2023-07-31T04:25:35;13.50;99.90
38118;DHT22;23928;47.562;7.508;2023-07-31T04:28:01;13.50;99.90
38118;DHT22;23928;47.562;7.508;2023-07-31T04:30:26;13.40;99.90
38118;DHT22;23928;47.562;7.508;2023-07-31T04:32:52;13.40;99.90
38118;DHT22;23928;47.562;7.508;2023-07-31T04:35:17;13.60;99.90
38118;DHT22;23928;47.562;7.508;2023-07-31T04:37:43;13.50;99.90
38118;DHT22;23928;47.562;7.508;2023-07-31T04:40:10;13.60;99.90
38118;DHT22;23928;47.562;7.508;2023-07-31T04:42:36;13.60;99.90
38118;DHT22;23928;47.562;7.508;2023-07-31T04:45:01;13.60;99.90
38118;DHT22;23928;47.562;7.508;2023-07-31T04:47:27;13.70;99.90
38118;DHT22;23928;47.562;7.508;2023-07-31T04:49:52;13.70;99.90
38118;DHT22;23928;47.562;7.508;2023-07-31T04:52:18;13.70;99.90
38118;DHT22;23928;47.562;7.508;2023-07-31T04:54:43;13.80;99.90
38118;DHT22;23928;47.562;7.508;2023-07-31T04:57:09;13.80;99.90
38118;DHT22;23928;47.562;7.508;2023-07-31T04:59:34;14.00;99.90
38118;DHT22;23928;47.562;7.508;2023-07-31T05:02:00;14.00;99.90
38118;DHT22;23928;47.562;7.508;2023-07-31T05:04:26;14.10;99.90
38118;DHT22;23928;47.562;7.508;2023-07-31T05:06:51;14.20;99.90
38118;DHT22;23928;47.562;7.508;2023-07-31T05:09:17;14.20;99.90
38118;DHT22;23928;47.562;7.508;2023-07-31T05:11:43;14.20;99.90
38118;DHT22;23928;47.562;7.508;2023-07-31T05:14:09;14.30;99.90
38118;DHT22;23928;47.562;7.508;2023-07-31T05:16:35;14.30;99.90
38118;DHT22;23928;47.562;7.508;2023-07-31T05:19:00;14.30;99.90
38118;DHT22;23928;47.562;7.508;2023-07-31T05:21:26;14.40;99.90
38118;DHT22;23928;47.562;7.508;2023-07-31T05:23:51;14.30;99.90
38118;DHT22;23928;47.562;7.508;2023-07-31T05:26:17;14.40;99.90
38118;DHT22;23928;47.562;7.508;2023-07-31T05:28:43;14.40;99.90
38118;DHT22;23928;47.562;7.508;2023-07-31T05:31:08;14.60;99.90
38118;DHT22;23928;47.562;7.508;2023-07-31T05:33:34;14.60;99.90
38118;DHT22;23928;47.562;7.508;2023-07-31T05:35:59;14.80;99.90
38118;DHT22;23928;47.562;7.508;2023-07-31T05:38:25;14.80;99.90
38118;DHT22;23928;47.562;7.508;2023-07-31T05:40:51;14.90;99.90
38118;DHT22;23928;47.562;7.508;2023-07-31T05:43:16;14.80;99.90
38118;DHT22;23928;47.562;7.508;2023-07-31T05:45:42;14.80;99.90
38118;DHT22;23928;47.562;7.508;2023-07-31T05:48:08;15.00;99.90
38118;DHT22;23928;47.562;7.508;2023-07-31T05:50:34;15.20;99.90
38118;DHT22;23928;47.562;7.508;2023-07-31T05:52:59;15.40;99.90
38118;DHT22;23928;47.562;7.508;2023-07-31T05:55:25;15.50;99.90
38118;DHT22;23928;47.562;7.508;2023-07-31T05:57:54;15.50;99.90
38118;DHT22;23928;47.562;7.508;2023-07-31T06:00:20;15.70;99.90
38118;DHT22;23928;47.562;7.508;2023-07-31T06:02:47;15.80;99.90
38118;DHT22;23928;47.562;7.508;2023-07-31T06:05:13;15.80;99.90
38118;DHT22;23928;47.562;7.508;2023-07-31T06:07:39;15.70;99.90
38118;DHT22;23928;47.562;7.508;2023-07-31T06:10:05;15.80;99.90
38118;DHT22;23928;47.562;7.508;2023-07-31T06:12:34;16.00;99.90
38118;DHT22;23928;47.562;7.508;2023-07-31T06:15:01;16.20;99.90
38118;DHT22;23928;47.562;7.508;2023-07-31T06:17:27;16.20;99.90
38118;DHT22;23928;47.562;7.508;2023-07-31T06:19:53;16.20;99.90
38118;DHT22;23928;47.562;7.508;2023-07-31T06:22:18;16.30;99.90
38118;DHT22;23928;47.562;7.508;2023-07-31T06:24:44;16.40;99.90
38118;DHT22;23928;47.562;7.508;2023-07-31T06:27:10;16.40;99.90
38118;DHT22;23928;47.562;7.508;2023-07-31T06:29:36;16.60;99.90
38118;DHT22;23928;47.562;7.508;2023-07-31T06:32:02;16.90;99.90
38118;DHT22;23928;47.562;7.508;2023-07-31T06:34:28;16.90;99.90
38118;DHT22;23928;47.562;7.508;2023-07-31T06:36:53;17.00;99.90
38118;DHT22;23928;47.562;7.508;2023-07-31T06:39:19;17.10;99.90
38118;DHT22;23928;47.562;7.508;2023-07-31T06:41:44;17.20;99.90
38118;DHT22;23928;47.562;7.508;2023-07-31T06:44:10;17.30;99.90
38118;DHT22;23928;47.562;7.508;2023-07-31T06:46:36;17.40;99.90
38118;DHT22;23928;47.562;7.508;2023-07-31T06:49:02;17.30;99.90
38118;DHT22;23928;47.562;7.508;2023-07-31T06:51:28;17.20;99.90
38118;DHT22;23928;47.562;7.508;2023-07-31T06:53:53;17.20;99.90
38118;DHT22;23928;47.562;7.508;2023-07-31T06:56:20;17.30;99.90
38118;DHT22;23928;47.562;7.508;2023-07-31T06:58:46;17.50;99.90
38118;DHT22;23928;47.562;7.508;2023-07-31T07:01:11;17.80;99.90
38118;DHT22;23928;47.562;7.508;2023-07-31T07:03:37;18.00;99.90
38118;DHT22;23928;47.562;7.508;2023-07-31T07:06:02;18.00;99.90
38118;DHT22;23928;47.562;7.508;2023-07-31T07:08:28;18.00;99.90
38118;DHT22;23928;47.562;7.508;2023-07-31T07:10:54;18.10;99.90
38118;DHT22;23928;47.562;7.508;2023-07-31T07:13:19;18.40;99.90
38118;DHT22;23928;47.562;7.508;2023-07-31T07:15:51;18.60;99.90
38118;DHT22;23928;47.562;7.508;2023-07-31T07:18:17;18.90;99.90
38118;DHT22;23928;47.562;7.508;2023-07-31T07:20:53;19.20;99.90
38118;DHT22;23928;47.562;7.508;2023-07-31T07:23:20;19.40;99.90
38118;DHT22;23928;47.562;7.508;2023-07-31T07:25:47;19.50;99.90
38118;DHT22;23928;47.562;7.508;2023-07-31T07:28:13;19.30;99.90
38118;DHT22;23928;47.562;7.508;2023-07-31T07:30:39;19.40;99.90
38118;DHT22;23928;47.562;7.508;2023-07-31T07:33:05;19.20;99.90
38118;DHT22;23928;47.562;7.508;2023-07-31T07:35:32;19.20;99.90
38118;DHT22;23928;47.562;7.508;2023-07-31T07:37:58;19.50;99.90
38118;DHT22;23928;47.562;7.508;2023-07-31T07:40:23;19.70;99.90
38118;DHT22;23928;47.562;7.508;2023-07-31T07:42:50;19.60;99.90
38118;DHT22;23928;47.562;7.508;2023-07-31T07:45:15;19.50;99.90
38118;DHT22;23928;47.562;7.508;2023-07-31T07:47:41;19.80;99.90
38118;DHT22;23928;47.562;7.508;2023-07-31T07:50:07;19.60;99.90
38118;DHT22;23928;47.562;7.508;2023-07-31T07:52:33;19.80;99.90
38118;DHT22;23928;47.562;7.508;2023-07-31T07:54:59;20.10;99.90
38118;DHT22;23928;47.562;7.508;2023-07-31T07:57:26;19.80;99.90
38118;DHT22;23928;47.562;7.508;2023-07-31T07:59:51;20.10;99.90
38118;DHT22;23928;47.562;7.508;2023-07-31T08:02:17;20.20;99.90
38118;DHT22;23928;47.562;7.508;2023-07-31T08:04:43;20.30;99.90
38118;DHT22;23928;47.562;7.508;2023-07-31T08:07:11;20.60;99.90
38118;DHT22;23928;47.562;7.508;2023-07-31T08:09:37;20.80;99.90
38118;DHT22;23928;47.562;7.508;2023-07-31T08:12:04;20.60;99.90
38118;DHT22;23928;47.562;7.508;2023-07-31T08:14:29;20.90;99.90
38118;DHT22;23928;47.562;7.508;2023-07-31T08:16:55;20.80;99.90
38118;DHT22;23928;47.562;7.508;2023-07-31T08:19:21;20.90;99.90
38118;DHT22;23928;47.562;7.508;2023-07-31T08:21:47;20.80;99.90
38118;DHT22;23928;47.562;7.508;2023-07-31T08:24:12;21.20;99.90
38118;DHT22;23928;47.562;7.508;2023-07-31T08:26:38;21.30;99.90
38118;DHT22;23928;47.562;7.508;2023-07-31T08:29:04;20.90;99.90
38118;DHT22;23928;47.562;7.508;2023-07-31T08:31:29;20.60;99.90
38118;DHT22;23928;47.562;7.508;2023-07-31T08:33:56;20.30;99.90
38118;DHT22;23928;47.562;7.508;2023-07-31T08:36:21;20.50;99.90
38118;DHT22;23928;47.562;7.508;2023-07-31T08:38:47;21.00;99.90
38118;DHT22;23928;47.562;7.508;2023-07-31T08:41:13;21.40;99.90
38118;DHT22;23928;47.562;7.508;2023-07-31T08:43:39;21.20;99.90
38118;DHT22;23928;47.562;7.508;2023-07-31T08:46:05;20.90;99.90
38118;DHT22;23928;47.562;7.508;2023-07-31T08:48:31;20.70;99.90
38118;DHT22;23928;47.562;7.508;2023-07-31T08:50:57;20.60;99.90
38118;DHT22;23928;47.562;7.508;2023-07-31T08:53:23;20.70;99.90
38118;DHT22;23928;47.562;7.508;2023-07-31T08:55:49;21.10;99.90
38118;DHT22;23928;47.562;7.508;2023-07-31T08:58:15;21.40;99.90
38118;DHT22;23928;47.562;7.508;2023-07-31T09:00:43;21.40;99.90
38118;DHT22;23928;47.562;7.508;2023-07-31T09:03:17;21.50;99.90
38118;DHT22;23928;47.562;7.508;2023-07-31T09:05:45;21.10;99.90
38118;DHT22;23928;47.562;7.508;2023-07-31T09:08:12;21.00;99.90
38118;DHT22;23928;47.562;7.508;2023-07-31T09:10:42;21.10;99.90
38118;DHT22;23928;47.562;7.508;2023-07-31T09:13:08;21.50;99.90
38118;DHT22;23928;47.562;7.508;2023-07-31T09:15:35;21.60;99.90
38118;DHT22;23928;47.562;7.508;2023-07-31T09:18:02;21.80;99.90
38118;DHT22;23928;47.562;7.508;2023-07-31T09:20:28;22.30;99.90
38118;DHT22;23928;47.562;7.508;2023-07-31T09:22:55;22.30;99.90
38118;DHT22;23928;47.562;7.508;2023-07-31T09:25:27;22.00;99.90
38118;DHT22;23928;47.562;7.508;2023-07-31T09:28:06;22.30;99.90
38118;DHT22;23928;47.562;7.508;2023-07-31T09:30:47;22.20;99.90
38118;DHT22;23928;47.562;7.508;2023-07-31T09:33:13;22.20;99.90
38118;DHT22;23928;47.562;7.508;2023-07-31T09:35:39;21.70;99.90
38118;DHT22;23928;47.562;7.508;2023-07-31T09:38:15;21.70;99.90
38118;DHT22;23928;47.562;7.508;2023-07-31T09:40:42;21.90;99.90
38118;DHT22;23928;47.562;7.508;2023-07-31T09:43:10;21.70;99.90
38118;DHT22;23928;47.562;7.508;2023-07-31T09:45:41;21.60;99.90
38118;DHT22;23928;47.562;7.508;2023-07-31T09:48:08;21.80;99.90
38118;DHT22;23928;47.562;7.508;2023-07-31T09:50:39;21.80;99.90
38118;DHT22;23928;47.562;7.508;2023-07-31T09:53:09;21.90;99.90
38118;DHT22;23928;47.562;7.508;2023-07-31T09:55:35;22.20;99.90
38118;DHT22;23928;47.562;7.508;2023-07-31T09:58:07;22.40;99.90
38118;DHT22;23928;47.562;7.508;2023-07-31T10:00:34;22.10;99.90
38118;DHT22;23928;47.562;7.508;2023-07-31T10:03:08;22.20;99.90
38118;DHT22;23928;47.562;7.508;2023-07-31T10:05:40;22.50;99.90
38118;DHT22;23928;47.562;7.508;2023-07-31T10:08:09;22.70;99.90
38118;DHT22;23928;47.562;7.508;2023-07-31T10:10:36;22.80;99.90
38118;DHT22;23928;47.562;7.508;2023-07-31T10:13:04;22.60;99.90
38118;DHT22;23928;47.562;7.508;2023-07-31T10:15:30;22.50;99.90
38118;DHT22;23928;47.562;7.508;2023-07-31T10:17:57;22.50;99.90
38118;DHT22;23928;47.562;7.508;2023-07-31T10:20:23;22.30;99.90
38118;DHT22;23928;47.562;7.508;2023-07-31T10:22:50;22.30;99.90
38118;DHT22;23928;47.562;7.508;2023-07-31T10:25:16;22.20;99.90
38118;DHT22;23928;47.562;7.508;2023-07-31T10:27:43;22.20;99.90
38118;DHT22;23928;47.562;7.508;2023-07-31T10:30:12;22.20;99.90
38118;DHT22;23928;47.562;7.508;2023-07-31T10:32:40;22.60;99.90
38118;DHT22;23928;47.562;7.508;2023-07-31T10:35:08;23.00;99.90
38118;DHT22;23928;47.562;7.508;2023-07-31T10:37:38;23.20;99.90
38118;DHT22;23928;47.562;7.508;2023-07-31T10:40:05;23.20;99.90
38118;DHT22;23928;47.562;7.508;2023-07-31T10:42:33;23.00;99.90
38118;DHT22;23928;47.562;7.508;2023-07-31T10:45:04;23.10;99.90
38118;DHT22;23928;47.562;7.508;2023-07-31T10:47:31;22.90;99.90
38118;DHT22;23928;47.562;7.508;2023-07-31T10:52:38;23.70;99.90
38118;DHT22;23928;47.562;7.508;2023-07-31T10:57:51;23.70;99.90
38118;DHT22;23928;47.562;7.508;2023-07-31T11:00:27;23.90;99.90
38118;DHT22;23928;47.562;7.508;2023-07-31T11:03:03;24.30;99.90
38118;DHT22;23928;47.562;7.508;2023-07-31T11:08:42;23.50;99.90
38118;DHT22;23928;47.562;7.508;2023-07-31T11:11:11;23.30;99.90
38118;DHT22;23928;47.562;7.508;2023-07-31T11:13:50;23.50;99.90
38118;DHT22;23928;47.562;7.508;2023-07-31T11:16:20;23.40;99.90
38118;DHT22;23928;47.562;7.508;2023-07-31T11:18:46;23.50;99.90
38118;DHT22;23928;47.562;7.508;2023-07-31T11:21:20;23.50;99.90
38118;DHT22;23928;47.562;7.508;2023-07-31T11:23:53;24.10;99.90
38118;DHT22;23928;47.562;7.508;2023-07-31T11:26:19;24.20;99.90
38118;DHT22;23928;47.562;7.508;2023-07-31T11:28:48;23.90;99.90
38118;DHT22;23928;47.562;7.508;2023-07-31T11:31:15;23.90;99.90
38118;DHT22;23928;47.562;7.508;2023-07-31T11:33:40;24.00;99.90
38118;DHT22;23928;47.562;7.508;2023-07-31T11:36:13;24.20;99.90
38118;DHT22;23928;47.562;7.508;2023-07-31T11:38:39;23.30;99.90
38118;DHT22;23928;47.562;7.508;2023-07-31T11:41:05;23.20;99.90
38118;DHT22;23928;47.562;7.508;2023-07-31T11:43:33;23.40;99.90
38118;DHT22;23928;47.562;7.508;2023-07-31T11:46:00;23.90;99.90
38118;DHT22;23928;47.562;7.508;2023-07-31T11:48:33;24.70;99.90
38118;DHT22;23928;47.562;7.508;2023-07-31T11:51:02;24.60;99.90
38118;DHT22;23928;47.562;7.508;2023-07-31T11:53:35;24.10;99.90
38118;DHT22;23928;47.562;7.508;2023-07-31T11:56:02;24.30;99.90
38118;DHT22;23928;47.562;7.508;2023-07-31T11:58:31;23.90;99.90
38118;DHT22;23928;47.562;7.508;2023-07-31T12:00:57;24.00;99.90
38118;DHT22;23928;47.562;7.508;2023-07-31T12:03:24;23.80;99.90
38118;DHT22;23928;47.562;7.508;2023-07-31T12:05:50;23.80;99.90
38118;DHT22;23928;47.562;7.508;2023-07-31T12:08:16;23.70;99.90
38118;DHT22;23928;47.562;7.508;2023-07-31T12:10:42;23.80;99.90
38118;DHT22;23928;47.562;7.508;2023-07-31T12:13:19;24.30;99.90
38118;DHT22;23928;47.562;7.508;2023-07-31T12:15:45;24.30;99.90
38118;DHT22;23928;47.562;7.508;2023-07-31T12:18:19;24.10;99.90
38118;DHT22;23928;47.562;7.508;2023-07-31T12:20:49;24.70;99.90
38118;DHT22;23928;47.562;7.508;2023-07-31T12:23:24;24.50;99.90
38118;DHT22;23928;47.562;7.508;2023-07-31T12:26:13;25.00;99.90
38118;DHT22;23928;47.562;7.508;2023-07-31T12:28:47;25.70;99.90
38118;DHT22;23928;47.562;7.508;2023-07-31T12:31:15;25.20;99.90
38118;DHT22;23928;47.562;7.508;2023-07-31T12:33:43;25.20;99.90
38118;DHT22;23928;47.562;7.508;2023-07-31T12:36:21;25.10;99.90
38118;DHT22;23928;47.562;7.508;2023-07-31T12:38:47;25.40;99.90
38118;DHT22;23928;47.562;7.508;2023-07-31T12:41:12;24.90;99.90
38118;DHT22;23928;47.562;7.508;2023-07-31T12:43:40;25.30;99.90
38118;DHT22;23928;47.562;7.508;2023-07-31T12:46:06;26.10;99.90
38118;DHT22;23928;47.562;7.508;2023-07-31T12:48:36;25.30;99.90
38118;DHT22;23928;47.562;7.508;2023-07-31T12:51:02;24.70;99.90
38118;DHT22;23928;47.562;7.508;2023-07-31T12:53:28;25.10;99.90
38118;DHT22;23928;47.562;7.508;2023-07-31T12:55:55;25.60;99.90
38118;DHT22;23928;47.562;7.508;2023-07-31T12:58:21;25.70;99.90
38118;DHT22;23928;47.562;7.508;2023-07-31T13:00:46;25.80;99.90
38118;DHT22;23928;47.562;7.508;2023-07-31T13:03:12;26.30;99.90
38118;DHT22;23928;47.562;7.508;2023-07-31T13:05:37;25.60;99.90
38118;DHT22;23928;47.562;7.508;2023-07-31T13:08:03;25.70;99.90
38118;DHT22;23928;47.562;7.508;2023-07-31T13:10:29;25.60;99.90
38118;DHT22;23928;47.562;7.508;2023-07-31T13:12:55;26.10;99.90
38118;DHT22;23928;47.562;7.508;2023-07-31T13:15:21;26.30;99.90
38118;DHT22;23928;47.562;7.508;2023-07-31T13:17:46;25.70;99.90
38118;DHT22;23928;47.562;7.508;2023-07-31T13:20:12;25.70;99.90
38118;DHT22;23928;47.562;7.508;2023-07-31T13:22:38;26.10;99.90
38118;DHT22;23928;47.562;7.508;2023-07-31T13:25:04;26.20;99.90
38118;DHT22;23928;47.562;7.508;2023-07-31T13:27:30;25.40;99.90
38118;DHT22;23928;47.562;7.508;2023-07-31T13:29:56;25.40;99.90
38118;DHT22;23928;47.562;7.508;2023-07-31T13:32:21;25.20;99.90
38118;DHT22;23928;47.562;7.508;2023-07-31T13:34:47;25.20;99.90
38118;DHT22;23928;47.562;7.508;2023-07-31T13:37:14;25.20;99.90
38118;DHT22;23928;47.562;7.508;2023-07-31T13:39:40;25.30;99.90
38118;DHT22;23928;47.562;7.508;2023-07-31T13:42:07;25.40;99.90
38118;DHT22;23928;47.562;7.508;2023-07-31T13:44:36;25.30;99.90
38118;DHT22;23928;47.562;7.508;2023-07-31T13:47:02;25.70;99.90
38118;DHT22;23928;47.562;7.508;2023-07-31T13:49:28;25.90;99.90
38118;DHT22;23928;47.562;7.508;2023-07-31T13:51:54;26.20;99.90
38118;DHT22;23928;47.562;7.508;2023-07-31T13:54:19;25.80;99.90
38118;DHT22;23928;47.562;7.508;2023-07-31T13:56:45;26.10;99.90
38118;DHT22;23928;47.562;7.508;2023-07-31T13:59:11;25.90;99.90
38118;DHT22;23928;47.562;7.508;2023-07-31T14:01:36;25.80;99.90
38118;DHT22;23928;47.562;7.508;2023-07-31T14:04:02;25.70;99.90
38118;DHT22;23928;47.562;7.508;2023-07-31T14:06:28;25.90;99.90
38118;DHT22;23928;47.562;7.508;2023-07-31T14:08:54;25.90;99.90
38118;DHT22;23928;47.562;7.508;2023-07-31T14:11:21;25.70;99.90
38118;DHT22;23928;47.562;7.508;2023-07-31T14:13:47;25.50;99.90
38118;DHT22;23928;47.562;7.508;2023-07-31T14:16:12;25.60;99.90
38118;DHT22;23928;47.562;7.508;2023-07-31T14:18:38;25.80;99.90
38118;DHT22;23928;47.562;7.508;2023-07-31T14:21:03;26.20;99.90
38118;DHT22;23928;47.562;7.508;2023-07-31T14:23:29;26.80;99.90
38118;DHT22;23928;47.562;7.508;2023-07-31T14:25:55;26.80;99.90
38118;DHT22;23928;47.562;7.508;2023-07-31T14:28:20;26.50;99.90
38118;DHT22;23928;47.562;7.508;2023-07-31T14:30:46;26.50;99.90
38118;DHT22;23928;47.562;7.508;2023-07-31T14:33:11;25.90;99.90
38118;DHT22;23928;47.562;7.508;2023-07-31T14:35:37;25.50;99.90
38118;DHT22;23928;47.562;7.508;2023-07-31T14:38:02;26.60;99.90
38118;DHT22;23928;47.562;7.508;2023-07-31T14:40:28;26.00;99.90
38118;DHT22;23928;47.562;7.508;2023-07-31T14:42:54;25.70;99.90
38118;DHT22;23928;47.562;7.508;2023-07-31T14:45:19;25.70;99.90
38118;DHT22;23928;47.562;7.508;2023-07-31T14:47:45;25.70;99.90
38118;DHT22;23928;47.562;7.508;2023-07-31T14:50:11;26.10;99.90
38118;DHT22;23928;47.562;7.508;2023-07-31T14:52:37;25.90;99.90
38118;DHT22;23928;47.562;7.508;2023-07-31T14:55:02;25.80;99.90
38118;DHT22;23928;47.562;7.508;2023-07-31T14:57:28;25.40;99.90
38118;DHT22;23928;47.562;7.508;2023-07-31T14:59:53;25.20;99.90
38118;DHT22;23928;47.562;7.508;2023-07-31T15:02:19;24.90;99.90
38118;DHT22;23928;47.562;7.508;2023-07-31T15:04:45;24.60;99.90
38118;DHT22;23928;47.562;7.508;2023-07-31T15:07:10;24.60;99.90
38118;DHT22;23928;47.562;7.508;2023-07-31T15:09:36;24.40;99.90
38118;DHT22;23928;47.562;7.508;2023-07-31T15:12:02;24.40;99.90
38118;DHT22;23928;47.562;7.508;2023-07-31T15:14:27;24.20;99.90
38118;DHT22;23928;47.562;7.508;2023-07-31T15:16:53;24.30;99.90
38118;DHT22;23928;47.562;7.508;2023-07-31T15:19:19;24.10;99.90
38118;DHT22;23928;47.562;7.508;2023-07-31T15:21:44;24.50;99.90
38118;DHT22;23928;47.562;7.508;2023-07-31T15:24:10;24.70;99.90
38118;DHT22;23928;47.562;7.508;2023-07-31T15:26:37;24.60;99.90
38118;DHT22;23928;47.562;7.508;2023-07-31T15:29:06;24.30;99.90
38118;DHT22;23928;47.562;7.508;2023-07-31T15:31:38;24.30;99.90
38118;DHT22;23928;47.562;7.508;2023-07-31T15:34:04;24.20;99.90
38118;DHT22;23928;47.562;7.508;2023-07-31T15:36:29;24.50;99.90
38118;DHT22;23928;47.562;7.508;2023-07-31T15:38:55;24.40;99.90
38118;DHT22;23928;47.562;7.508;2023-07-31T15:41:20;24.10;99.90
38118;DHT22;23928;47.562;7.508;2023-07-31T15:43:46;24.10;99.90